Time;durP1;ratioP1;P1;durP2;ratioP2;P2;SDS_P1;SDS_P2;PMS_P1;PMS_P2;Temp;Humidity;BMP_temperature;BMP_pressure;BME280_temperature;BME280_humidity;BME280_pressure;Samples;Min_cycle;Max_cycle;Signal;HPM_P1;HPM_P2
2022/07/14 00:01:22;;;;;;;13.05;3.10;;;18.10;92.10;;;;;;5029204;28;20028;-47
2022/07/14 00:03:48;;;;;;;11.57;3.17;;;18.10;92.30;;;;;;5027701;28;20030;-47
2022/07/14 00:06:14;;;;;;;13.48;3.97;;;18.10;92.40;;;;;;5028645;28;20033;-46
2022/07/14 00:08:43;;;;;;;9.45;3.60;;;18.00;92.70;;;;;;5029223;28;20021;-47
2022/07/14 00:11:09;;;;;;;10.68;2.92;;;18.00;92.80;;;;;;5029088;28;20017;-46
2022/07/14 00:13:34;;;;;;;13.40;3.55;;;18.00;93.00;;;;;;5037378;28;20378;-46
2022/07/14 00:16:00;;;;;;;10.93;2.65;;;17.90;93.10;;;;;;5046898;28;20037;-48
2022/07/14 00:18:25;;;;;;;10.15;3.10;;;17.90;93.30;;;;;;5048815;28;20028;-46
2022/07/14 00:20:51;;;;;;;12.20;3.50;;;17.80;93.50;;;;;;5047623;28;20513;-50
2022/07/14 00:23:16;;;;;;;7.22;2.67;;;17.80;93.70;;;;;;5048953;28;20028;-47
2022/07/14 00:25:42;;;;;;;10.27;3.78;;;17.80;93.90;;;;;;5048231;28;20107;-47
2022/07/14 00:28:08;;;;;;;9.40;3.25;;;17.70;94.10;;;;;;5048498;28;20113;-47
2022/07/14 00:30:34;;;;;;;12.07;3.42;;;17.60;94.20;;;;;;5043177;28;20053;-48
2022/07/14 00:32:59;;;;;;;9.85;3.10;;;17.60;94.40;;;;;;5028652;28;20052;-48
2022/07/14 00:35:25;;;;;;;16.02;3.47;;;17.50;94.60;;;;;;5028770;28;20056;-49
2022/07/14 00:37:50;;;;;;;9.77;3.78;;;17.50;94.90;;;;;;5029189;28;20172;-47
2022/07/14 00:40:17;;;;;;;13.50;3.45;;;17.40;95.30;;;;;;5029112;28;20156;-48
2022/07/14 00:42:50;;;;;;;8.20;3.33;;;17.30;95.60;;;;;;5035322;28;20036;-48
2022/07/14 00:45:20;;;;;;;17.13;3.65;;;17.30;95.70;;;;;;5041584;28;20025;-47
2022/07/14 00:47:46;;;;;;;15.25;3.35;;;17.30;95.90;;;;;;5048356;28;20049;-51
2022/07/14 00:50:14;;;;;;;11.38;3.53;;;17.20;96.10;;;;;;5047054;28;20025;-49
2022/07/14 00:52:42;;;;;;;14.27;3.22;;;17.20;96.50;;;;;;5048507;28;20033;-48
2022/07/14 00:55:09;;;;;;;13.20;3.38;;;17.10;96.80;;;;;;5046411;28;20037;-47
2022/07/14 00:57:35;;;;;;;14.13;3.60;;;17.00;97.00;;;;;;5048076;28;20036;-49
2022/07/14 01:00:01;;;;;;;17.15;4.13;;;17.00;97.30;;;;;;5048779;28;20025;-48
2022/07/14 01:02:27;;;;;;;9.15;3.00;;;16.90;97.80;;;;;;5026461;28;20021;-47
2022/07/14 01:04:52;;;;;;;17.80;3.92;;;16.90;98.10;;;;;;5021777;28;20356;-48
2022/07/14 01:07:19;;;;;;;16.08;4.15;;;16.80;98.40;;;;;;5019684;28;20028;-48
2022/07/14 01:09:45;;;;;;;10.15;3.47;;;16.80;98.70;;;;;;5019458;28;20037;-48
2022/07/14 01:12:12;;;;;;;12.25;3.72;;;16.70;99.00;;;;;;5017007;28;20296;-48
2022/07/14 01:14:39;;;;;;;11.82;3.22;;;16.70;99.20;;;;;;5018978;28;20244;-48
2022/07/14 01:17:06;;;;;;;14.00;3.85;;;16.60;99.50;;;;;;5028455;28;20087;-48
2022/07/14 01:19:32;;;;;;;15.50;3.55;;;16.60;99.90;;;;;;5028362;28;20054;-48
2022/07/14 01:21:58;;;;;;;10.10;3.28;;;16.60;99.90;;;;;;5025293;28;20029;-48
2022/07/14 01:24:24;;;;;;;19.08;4.07;;;16.50;99.90;;;;;;5029373;28;20047;-50
2022/07/14 01:26:50;;;;;;;23.73;4.65;;;16.50;99.90;;;;;;5029728;28;20084;-47
2022/07/14 01:29:16;;;;;;;11.63;3.30;;;16.40;99.90;;;;;;5021481;28;20014;-49
2022/07/14 01:31:42;;;;;;;14.43;3.92;;;16.30;99.90;;;;;;5032825;28;20026;-47
2022/07/14 01:34:08;;;;;;;13.00;3.60;;;16.30;99.90;;;;;;5031492;28;21078;-47
2022/07/14 01:36:34;;;;;;;17.67;3.72;;;16.20;99.90;;;;;;5020835;28;20491;-47
2022/07/14 01:38:59;;;;;;;15.88;4.25;;;16.20;99.90;;;;;;5014106;28;20037;-49
2022/07/14 01:41:25;;;;;;;16.63;4.15;;;16.10;99.90;;;;;;5012385;28;20018;-48
2022/07/14 01:43:51;;;;;;;20.23;4.82;;;16.10;99.90;;;;;;5012187;28;20022;-50
2022/07/14 01:46:16;;;;;;;22.63;4.55;;;16.00;99.90;;;;;;5011364;28;20052;-48
2022/07/14 01:48:42;;;;;;;15.15;3.25;;;15.90;99.90;;;;;;5012012;28;20030;-49
2022/07/14 01:51:07;;;;;;;12.80;3.67;;;15.90;99.90;;;;;;5027384;28;20071;-49
2022/07/14 01:53:33;;;;;;;17.45;4.53;;;15.90;99.90;;;;;;5031345;28;20101;-48
2022/07/14 01:56:00;;;;;;;18.13;4.47;;;15.90;99.90;;;;;;5030751;28;20025;-49
2022/07/14 01:58:25;;;;;;;12.73;4.63;;;15.80;99.90;;;;;;5031298;28;20022;-49
2022/07/14 02:03:35;;;;;;;16.02;4.40;;;15.70;99.90;;;;;;5040225;28;20411;-48
2022/07/14 02:06:02;;;;;;;18.77;4.55;;;15.70;99.90;;;;;;5031071;28;20022;-48
2022/07/14 02:08:27;;;;;;;15.68;4.28;;;15.70;99.90;;;;;;5031756;28;20056;-48
2022/07/14 02:13:37;;;;;;;13.90;3.70;;;15.60;99.90;;;;;;5031392;28;20037;-47
2022/07/14 02:16:03;;;;;;;22.92;4.45;;;15.60;99.90;;;;;;5028944;28;20025;-48
2022/07/14 02:18:29;;;;;;;16.08;4.70;;;15.60;99.90;;;;;;5029803;28;20064;-48
2022/07/14 02:20:54;;;;;;;16.40;4.03;;;15.60;99.90;;;;;;5031055;28;20156;-48
2022/07/14 02:23:20;;;;;;;16.88;3.75;;;15.60;99.90;;;;;;5030911;28;20052;-45
2022/07/14 02:25:46;;;;;;;13.25;4.30;;;15.60;99.90;;;;;;5028914;28;20040;-45
2022/07/14 02:28:12;;;;;;;11.85;3.50;;;15.50;99.90;;;;;;5030934;28;20021;-47
2022/07/14 02:30:38;;;;;;;16.95;4.25;;;15.50;99.90;;;;;;5032393;28;20022;-46
2022/07/14 02:33:04;;;;;;;23.75;4.10;;;15.50;99.90;;;;;;5042554;28;20367;-46
2022/07/14 02:35:30;;;;;;;16.17;3.83;;;15.50;99.90;;;;;;5039422;28;20036;-47
2022/07/14 02:37:55;;;;;;;18.67;4.25;;;15.40;99.90;;;;;;5050431;28;20025;-45
2022/07/14 02:40:21;;;;;;;16.38;4.70;;;15.40;99.90;;;;;;5050703;28;20031;-46
2022/07/14 02:42:46;;;;;;;17.13;4.30;;;15.30;99.90;;;;;;5050946;28;20103;-46
2022/07/14 02:45:12;;;;;;;15.35;4.15;;;15.30;99.90;;;;;;5049905;28;20056;-45
2022/07/14 02:47:37;;;;;;;16.35;3.67;;;15.20;99.90;;;;;;5050527;28;20036;-45
2022/07/14 02:50:04;;;;;;;17.50;4.38;;;15.20;99.90;;;;;;5050739;28;20082;-46
2022/07/14 02:52:29;;;;;;;17.48;4.03;;;15.10;99.90;;;;;;5049427;28;20029;-47
2022/07/14 02:54:55;;;;;;;21.65;4.32;;;15.10;99.90;;;;;;5049850;28;20059;-45
2022/07/14 02:57:20;;;;;;;19.55;4.18;;;15.10;99.90;;;;;;5049087;28;20025;-48
2022/07/14 02:59:46;;;;;;;16.00;3.72;;;15.10;99.90;;;;;;5050461;28;20041;-46
2022/07/14 03:02:11;;;;;;;12.73;3.20;;;15.10;99.90;;;;;;5041577;28;20033;-48
2022/07/14 03:04:39;;;;;;;12.35;2.97;;;15.10;99.90;;;;;;5047901;28;20115;-45
2022/07/14 03:07:04;;;;;;;18.40;3.42;;;15.00;99.90;;;;;;5050366;28;20049;-45
2022/07/14 03:09:30;;;;;;;20.13;4.53;;;14.90;99.90;;;;;;5048943;28;20075;-45
2022/07/14 03:11:55;;;;;;;17.02;3.90;;;14.90;99.90;;;;;;5048943;28;20071;-45
2022/07/14 03:14:21;;;;;;;17.58;4.57;;;14.90;99.90;;;;;;5049447;28;20045;-48
2022/07/14 03:16:46;;;;;;;24.85;5.18;;;14.80;99.90;;;;;;5050044;28;20021;-47
2022/07/14 03:19:13;;;;;;;18.58;4.28;;;14.70;99.90;;;;;;5050239;28;20094;-46
2022/07/14 03:21:39;;;;;;;15.45;4.50;;;14.70;99.90;;;;;;5050074;28;20021;-46
2022/07/14 03:24:05;;;;;;;23.52;4.40;;;14.60;99.90;;;;;;5048112;28;20378;-46
2022/07/14 03:26:31;;;;;;;13.43;4.00;;;14.70;99.90;;;;;;5050098;28;20079;-47
2022/07/14 03:28:56;;;;;;;26.05;4.03;;;14.70;99.90;;;;;;5049926;28;20070;-47
2022/07/14 03:31:22;;;;;;;17.88;4.43;;;14.70;99.90;;;;;;5047836;28;20055;-49
2022/07/14 03:33:47;;;;;;;15.57;4.20;;;14.60;99.90;;;;;;5040557;28;20048;-46
2022/07/14 03:36:13;;;;;;;12.30;3.95;;;14.60;99.90;;;;;;5018054;28;20033;-47
2022/07/14 03:38:39;;;;;;;10.98;3.63;;;14.60;99.90;;;;;;5020529;28;20487;-47
2022/07/14 03:41:05;;;;;;;16.00;4.40;;;14.60;99.90;;;;;;5019060;28;20377;-46
2022/07/14 03:43:31;;;;;;;11.52;3.88;;;14.50;99.90;;;;;;5021249;28;20492;-46
2022/07/14 03:45:56;;;;;;;12.10;3.28;;;14.50;99.90;;;;;;5017567;28;20064;-46
2022/07/14 03:48:22;;;;;;;16.20;3.90;;;14.60;99.90;;;;;;5021443;28;20104;-48
2022/07/14 03:50:48;;;;;;;16.73;3.28;;;14.60;99.90;;;;;;5029031;28;20022;-45
2022/07/14 03:53:14;;;;;;;15.80;3.33;;;14.60;99.90;;;;;;5027507;28;20175;-47
2022/07/14 03:55:41;;;;;;;12.85;3.60;;;14.60;99.90;;;;;;5028885;28;20598;-46
2022/07/14 03:58:07;;;;;;;14.18;4.20;;;14.60;99.90;;;;;;5029662;28;20021;-46
2022/07/14 04:00:33;;;;;;;14.25;3.80;;;14.60;99.90;;;;;;5028974;28;20041;-47
2022/07/14 04:02:58;;;;;;;10.93;3.88;;;14.70;99.90;;;;;;5039925;28;20032;-46
2022/07/14 04:05:24;;;;;;;13.70;4.57;;;14.60;99.90;;;;;;5048893;28;20040;-47
2022/07/14 04:07:49;;;;;;;22.45;4.20;;;14.60;99.90;;;;;;5049123;28;20060;-47
2022/07/14 04:10:15;;;;;;;16.13;3.38;;;14.70;99.90;;;;;;5030052;28;20384;-49
2022/07/14 04:12:40;;;;;;;19.08;4.50;;;14.70;99.90;;;;;;5029722;28;20041;-45
2022/07/14 04:15:06;;;;;;;25.13;4.90;;;14.80;99.90;;;;;;5024385;28;20033;-46
2022/07/14 04:17:32;;;;;;;17.85;4.20;;;14.80;99.90;;;;;;5028440;28;20558;-47
2022/07/14 04:19:57;;;;;;;19.17;4.30;;;14.80;99.90;;;;;;5028763;28;20071;-49
2022/07/14 04:22:23;;;;;;;10.50;4.15;;;14.80;99.90;;;;;;5010125;28;20025;-48
2022/07/14 04:24:48;;;;;;;21.13;3.60;;;14.90;99.90;;;;;;5035581;28;20076;-49
2022/07/14 04:27:14;;;;;;;16.92;5.47;;;14.90;99.90;;;;;;5022569;28;20108;-47
2022/07/14 04:29:39;;;;;;;24.90;4.80;;;14.80;99.90;;;;;;5031642;28;20029;-46
2022/07/14 04:32:05;;;;;;;19.58;5.85;;;14.80;99.90;;;;;;5045221;28;20013;-47
2022/07/14 04:34:30;;;;;;;17.75;4.68;;;14.80;99.90;;;;;;5041002;28;20100;-49
2022/07/14 04:36:56;;;;;;;19.08;4.65;;;14.90;99.90;;;;;;5034463;28;20026;-46
2022/07/14 04:39:22;;;;;;;15.15;4.10;;;14.90;99.90;;;;;;5025407;28;20022;-48
2022/07/14 04:41:52;;;;;;;17.73;4.88;;;14.90;99.90;;;;;;5019387;28;20113;-47
2022/07/14 04:44:18;;;;;;;;;;;14.90;99.90;;;;;;5014121;28;20080;-47
2022/07/14 04:46:43;;;;;;;19.23;4.25;;;15.00;99.90;;;;;;5008699;28;19917;-47
2022/07/14 04:52:02;;;;;;;16.02;4.43;;;15.10;99.90;;;;;;5008694;28;20037;-47
2022/07/14 04:54:28;;;;;;;21.42;4.43;;;15.20;99.90;;;;;;5006733;28;20100;-47
2022/07/14 04:56:53;;;;;;;18.55;4.20;;;15.20;99.90;;;;;;5008673;28;20072;-47
2022/07/14 04:59:19;;;;;;;22.80;5.40;;;15.20;99.90;;;;;;5010693;28;20034;-47
2022/07/14 05:01:45;;;;;;;19.77;6.25;;;15.20;99.90;;;;;;5032165;28;20541;-49
2022/07/14 05:04:10;;;;;;;16.67;4.40;;;15.20;99.90;;;;;;5038559;28;20055;-47
2022/07/14 05:06:36;;;;;;;16.42;3.83;;;15.20;99.90;;;;;;5032407;28;20440;-47
2022/07/14 05:09:02;;;;;;;16.40;4.47;;;15.20;99.90;;;;;;5031972;28;20022;-47
2022/07/14 05:11:27;;;;;;;22.92;4.53;;;15.20;99.90;;;;;;5032284;28;20079;-47
2022/07/14 05:13:53;;;;;;;22.75;5.15;;;15.30;99.90;;;;;;5031180;28;20041;-47
2022/07/14 05:16:19;;;;;;;16.23;4.18;;;15.20;99.90;;;;;;5031544;28;20029;-48
2022/07/14 05:18:44;;;;;;;10.38;4.00;;;15.30;99.90;;;;;;5032200;28;20125;-47
2022/07/14 05:21:10;;;;;;;11.52;3.75;;;15.30;99.90;;;;;;5030739;28;20418;-47
2022/07/14 05:23:36;;;;;;;16.92;3.85;;;15.30;99.90;;;;;;5032104;28;20112;-48
2022/07/14 05:26:02;;;;;;;21.50;5.00;;;15.30;99.90;;;;;;5031491;28;20048;-47
2022/07/14 05:28:27;;;;;;;16.35;3.97;;;15.30;99.90;;;;;;5031948;28;20463;-47
2022/07/14 05:31:00;;;;;;;21.38;4.25;;;15.30;99.90;;;;;;5034575;28;20013;-48
2022/07/14 05:33:25;;;;;;;14.90;3.92;;;15.30;99.90;;;;;;5042012;28;20059;-48
2022/07/14 05:35:51;;;;;;;14.80;3.83;;;15.30;99.90;;;;;;5051097;28;20060;-48
2022/07/14 05:38:16;;;;;;;11.30;3.50;;;15.40;99.90;;;;;;5051719;28;20048;-47
2022/07/14 05:40:42;;;;;;;17.20;4.22;;;15.50;99.90;;;;;;5051489;28;20053;-48
2022/07/14 05:43:07;;;;;;;17.20;3.72;;;15.50;99.90;;;;;;5051517;28;20474;-48
2022/07/14 05:45:33;;;;;;;10.65;3.22;;;15.50;99.90;;;;;;5050724;28;20035;-50
2022/07/14 05:47:58;;;;;;;16.45;3.08;;;15.60;99.90;;;;;;5051784;28;20398;-48
2022/07/14 05:50:24;;;;;;;11.40;2.63;;;15.60;99.90;;;;;;5051573;28;20044;-48
2022/07/14 05:52:49;;;;;;;17.85;3.45;;;15.70;99.90;;;;;;5033787;28;20099;-47
2022/07/14 05:55:15;;;;;;;17.05;3.60;;;15.70;99.90;;;;;;5049576;28;20052;-48
2022/07/14 05:57:40;;;;;;;14.25;3.42;;;15.80;99.90;;;;;;5051615;28;20191;-47
2022/07/14 06:00:07;;;;;;;14.85;3.63;;;15.80;99.90;;;;;;5051428;28;20112;-49
2022/07/14 06:02:34;;;;;;;11.65;2.75;;;15.80;99.90;;;;;;5039654;28;20503;-47
2022/07/14 06:04:59;;;;;;;9.52;2.92;;;15.80;99.90;;;;;;5051040;28;20306;-48
2022/07/14 06:07:24;;;;;;;12.10;2.88;;;15.90;99.90;;;;;;5050372;28;20056;-47
2022/07/14 06:09:50;;;;;;;21.83;3.72;;;15.90;99.90;;;;;;5051521;28;20402;-47
2022/07/14 06:12:16;;;;;;;9.13;2.80;;;15.90;99.90;;;;;;5051513;28;20017;-47
2022/07/14 06:14:43;;;;;;;9.00;2.70;;;15.90;99.90;;;;;;5050474;28;20032;-46
2022/07/14 06:17:09;;;;;;;19.90;4.20;;;15.90;99.90;;;;;;5050962;28;20461;-47
2022/07/14 06:19:34;;;;;;;15.18;3.22;;;15.90;99.90;;;;;;5050955;28;20037;-48
2022/07/14 06:22:04;;;;;;;9.77;2.70;;;15.90;99.90;;;;;;5051086;28;20021;-47
2022/07/14 06:24:29;;;;;;;13.25;3.20;;;16.00;99.90;;;;;;5050479;28;20020;-46
2022/07/14 06:26:54;;;;;;;15.30;3.88;;;16.00;99.90;;;;;;5051035;28;20113;-48
2022/07/14 06:29:20;;;;;;;9.95;3.03;;;16.00;99.90;;;;;;5050960;28;20094;-46
2022/07/14 06:31:46;;;;;;;9.27;2.78;;;16.10;99.90;;;;;;5047198;28;20029;-47
2022/07/14 06:34:11;;;;;;;11.55;3.15;;;16.20;99.90;;;;;;5044376;28;20025;-49
2022/07/14 06:36:37;;;;;;;13.35;2.67;;;16.20;99.90;;;;;;5050902;28;20029;-46
2022/07/14 06:39:02;;;;;;;12.43;2.70;;;16.30;99.90;;;;;;5051161;28;20223;-48
2022/07/14 06:41:28;;;;;;;8.98;2.53;;;16.40;99.90;;;;;;5050749;28;20029;-48
2022/07/14 06:43:53;;;;;;;10.77;2.15;;;16.40;99.90;;;;;;5050504;28;20033;-47
2022/07/14 06:46:19;;;;;;;9.45;2.83;;;16.50;99.90;;;;;;5049944;28;20029;-49
2022/07/14 06:48:45;;;;;;;5.55;2.15;;;16.50;99.90;;;;;;5050824;28;20283;-47
2022/07/14 06:51:10;;;;;;;7.00;2.35;;;16.50;99.90;;;;;;5050582;28;20021;-46
2022/07/14 06:53:36;;;;;;;9.20;2.60;;;16.60;99.90;;;;;;5050685;28;20033;-48
2022/07/14 06:56:02;;;;;;;13.35;2.83;;;16.70;99.90;;;;;;5049966;28;20029;-47
2022/07/14 06:58:27;;;;;;;8.30;2.30;;;16.80;99.90;;;;;;5050824;28;20410;-48
2022/07/14 07:00:53;;;;;;;11.18;2.33;;;16.80;99.90;;;;;;5047281;28;20021;-48
2022/07/14 07:03:18;;;;;;;14.02;3.00;;;16.90;99.90;;;;;;5041909;28;20039;-48
2022/07/14 07:08:28;;;;;;;11.32;3.08;;;17.00;99.90;;;;;;5050336;28;20039;-48
2022/07/14 07:10:57;;;;;;;15.90;4.65;;;17.10;99.90;;;;;;5050062;28;20096;-48
2022/07/14 07:13:23;;;;;;;10.18;2.17;;;17.00;99.90;;;;;;5041932;28;20017;-48
2022/07/14 07:15:49;;;;;;;14.82;2.67;;;17.20;99.90;;;;;;5027757;28;20021;-47
2022/07/14 07:18:14;;;;;;;8.02;2.55;;;17.40;99.90;;;;;;5028003;28;20037;-50
2022/07/14 07:20:40;;;;;;;8.00;2.30;;;17.40;99.90;;;;;;5029683;28;20437;-47
2022/07/14 07:23:05;;;;;;;10.85;2.15;;;17.50;99.90;;;;;;5029156;28;20109;-47
2022/07/14 07:25:31;;;;;;;6.22;2.00;;;17.60;99.90;;;;;;5028814;28;20025;-47
2022/07/14 07:27:58;;;;;;;11.82;2.63;;;17.80;99.70;;;;;;5029773;28;20022;-50
2022/07/14 07:30:24;;;;;;;7.65;2.13;;;17.90;98.90;;;;;;5029470;28;20598;-48
2022/07/14 07:32:50;;;;;;;9.38;2.53;;;18.00;99.20;;;;;;5039570;28;20086;-48
2022/07/14 07:35:16;;;;;;;10.85;2.80;;;18.10;98.30;;;;;;5048834;28;20025;-47
2022/07/14 07:37:41;;;;;;;8.52;2.13;;;18.10;98.40;;;;;;5049038;28;20029;-47
2022/07/14 07:40:08;;;;;;;14.38;2.47;;;18.30;98.50;;;;;;5049553;28;20082;-47
2022/07/14 07:42:33;;;;;;;10.25;2.15;;;18.60;98.00;;;;;;5049877;28;20029;-47
2022/07/14 07:45:00;;;;;;;10.57;2.92;;;18.70;97.30;;;;;;5048706;28;20470;-47
2022/07/14 07:47:26;;;;;;;8.88;2.58;;;18.70;96.80;;;;;;5049229;28;20398;-47
2022/07/14 07:49:52;;;;;;;7.72;2.13;;;18.70;96.60;;;;;;5048258;28;20021;-48
2022/07/14 07:52:18;;;;;;;13.10;3.35;;;18.80;96.20;;;;;;5039487;28;20025;-47
2022/07/14 07:54:44;;;;;;;11.02;2.97;;;18.90;95.80;;;;;;5026450;28;20041;-47
2022/07/14 07:57:10;;;;;;;14.07;2.55;;;18.80;95.70;;;;;;5048316;28;20036;-47
2022/07/14 07:59:36;;;;;;;10.75;3.05;;;19.20;96.20;;;;;;5048713;28;20025;-47
2022/07/14 08:02:01;;;;;;;15.90;2.55;;;19.60;96.00;;;;;;5040540;28;20028;-48
2022/07/14 08:04:27;;;;;;;13.13;2.38;;;19.70;94.10;;;;;;5044187;28;20059;-48
2022/07/14 08:06:52;;;;;;;9.43;2.13;;;19.80;94.00;;;;;;5047053;28;20032;-48
2022/07/14 08:09:18;;;;;;;13.90;2.30;;;20.00;93.90;;;;;;5048124;28;20148;-50
2022/07/14 08:11:43;;;;;;;14.40;2.30;;;20.10;92.80;;;;;;5045602;28;20044;-49
2022/07/14 08:16:58;;;;;;;8.25;2.10;;;20.20;92.80;;;;;;5025009;28;20044;-48
2022/07/14 08:19:23;;;;;;;7.90;2.10;;;20.50;92.50;;;;;;5026800;28;20029;-50
2022/07/14 08:21:49;;;;;;;10.48;2.38;;;20.90;90.70;;;;;;5025990;28;20082;-49
2022/07/14 08:24:15;;;;;;;7.22;2.03;;;21.60;87.60;;;;;;5023869;28;20410;-48
2022/07/14 08:26:41;;;;;;;4.18;1.58;;;21.70;86.40;;;;;;5026827;28;20037;-47
2022/07/14 08:29:07;;;;;;;5.25;1.88;;;21.50;87.10;;;;;;5027074;28;20489;-49
2022/07/14 08:31:33;;;;;;;4.25;1.40;;;21.60;88.20;;;;;;5033356;28;20024;-48
2022/07/14 08:33:58;;;;;;;4.97;1.95;;;22.40;85.60;;;;;;5027577;28;20469;-51
2022/07/14 08:36:24;;;;;;;6.60;1.83;;;23.50;82.30;;;;;;5023651;28;20115;-48
2022/07/14 08:38:49;;;;;;;5.63;1.90;;;24.40;79.60;;;;;;5025895;28;20025;-49
2022/07/14 08:41:15;;;;;;;6.80;1.90;;;25.60;72.20;;;;;;5026112;28;20026;-51
2022/07/14 08:43:42;;;;;;;6.57;1.75;;;26.80;70.60;;;;;;5025421;28;20073;-48
2022/07/14 08:46:07;;;;;;;4.07;1.67;;;28.00;65.20;;;;;;5006750;28;20197;-46
2022/07/14 08:48:34;;;;;;;5.07;1.77;;;28.80;62.80;;;;;;5025421;28;20033;-50
2022/07/14 08:51:00;;;;;;;3.80;1.65;;;29.50;59.10;;;;;;5026755;28;20033;-47
2022/07/14 08:53:27;;;;;;;3.03;1.23;;;30.10;57.20;;;;;;5024534;28;20159;-48
2022/07/14 08:55:53;;;;;;;5.22;1.83;;;30.50;55.20;;;;;;5020162;28;20026;-48
2022/07/14 08:58:18;;;;;;;7.88;1.67;;;30.80;54.80;;;;;;5026389;28;20033;-48
2022/07/14 09:00:44;;;;;;;8.48;1.58;;;31.50;53.50;;;;;;5029919;28;20679;-50
2022/07/14 09:03:09;;;;;;;5.28;2.17;;;30.40;53.30;;;;;;5036131;28;20495;-50
2022/07/14 09:05:41;;;;;;;6.50;1.67;;;31.80;52.20;;;;;;5026442;28;20114;-48
2022/07/14 09:08:06;;;;;;;4.88;1.50;;;32.50;49.60;;;;;;5023163;28;20025;-48
2022/07/14 09:10:32;;;;;;;2.95;1.27;;;32.50;50.60;;;;;;5020583;28;20034;-50
2022/07/14 09:13:17;;;;;;;5.55;1.52;;;33.10;49.00;;;;;;5014037;28;20041;-49
2022/07/14 09:15:46;;;;;;;4.65;1.30;;;33.80;48.00;;;;;;5026506;28;20042;-51
2022/07/14 09:18:27;;;;;;;7.18;1.95;;;34.00;46.90;;;;;;5019775;28;20025;-50
2022/07/14 09:20:54;;;;;;;6.95;2.17;;;33.70;44.90;;;;;;5023605;28;20048;-51
2022/07/14 09:23:31;;;;;;;7.65;2.10;;;33.80;46.60;;;;;;5025462;28;20021;-48
2022/07/14 09:26:11;;;;;;;5.63;2.42;;;34.00;45.80;;;;;;5014499;28;20041;-50
2022/07/14 09:28:45;;;;;;;7.25;1.70;;;34.70;46.70;;;;;;5007680;28;20396;-49
2022/07/14 09:31:23;;;;;;;5.30;1.88;;;34.50;45.70;;;;;;5032298;28;20096;-50
2022/07/14 09:33:50;;;;;;;6.97;1.75;;;34.00;45.10;;;;;;5039214;28;20387;-50
2022/07/14 09:36:26;;;;;;;3.05;1.27;;;34.70;44.90;;;;;;5045580;28;20025;-51
2022/07/14 09:38:55;;;;;;;4.55;1.40;;;34.20;44.60;;;;;;5047468;28;20029;-51
2022/07/14 09:41:21;;;;;;;6.50;1.50;;;34.50;44.80;;;;;;5047119;28;20039;-51
2022/07/14 09:44:10;;;;;;;3.08;1.23;;;34.40;44.70;;;;;;5047262;28;20107;-49
2022/07/14 09:46:56;;;;;;;4.80;1.60;;;34.20;44.10;;;;;;5048818;28;20066;-50
2022/07/14 09:49:27;;;;;;;3.97;1.55;;;34.50;44.50;;;;;;5051060;28;20100;-49
2022/07/14 09:52:04;;;;;;;4.82;1.63;;;34.20;44.20;;;;;;5051706;28;20029;-51
2022/07/14 09:54:49;;;;;;;7.85;2.25;;;33.90;45.30;;;;;;5050787;28;20021;-51
2022/07/14 09:57:15;;;;;;;7.60;2.97;;;32.60;46.10;;;;;;5048951;28;20479;-48
2022/07/14 09:59:51;;;;;;;5.18;1.90;;;31.50;47.30;;;;;;5051315;28;20021;-51
2022/07/14 10:02:23;;;;;;;6.53;1.95;;;30.40;49.10;;;;;;5029990;28;20025;-49
2022/07/14 10:04:50;;;;;;;6.60;1.73;;;30.50;49.90;;;;;;5027990;28;20025;-50
2022/07/14 10:07:17;;;;;;;3.28;1.50;;;31.60;48.70;;;;;;5023461;28;20022;-48
2022/07/14 10:09:58;;;;;;;4.57;1.60;;;32.30;47.40;;;;;;5020341;28;20073;-51
2022/07/14 10:12:25;;;;;;;25.20;19.08;;;33.30;45.90;;;;;;5022172;28;20494;-50
2022/07/14 10:14:52;;;;;;;16.17;11.05;;;34.10;44.50;;;;;;5020794;28;20038;-50
2022/07/14 10:17:18;;;;;;;4.55;1.60;;;34.00;43.80;;;;;;5019996;28;20515;-50
2022/07/14 10:19:46;;;;;;;4.07;1.58;;;34.60;44.30;;;;;;5021996;28;20037;-50
2022/07/14 10:22:13;;;;;;;2.72;1.42;;;34.80;42.80;;;;;;5022671;28;20032;-49
2022/07/14 10:24:40;;;;;;;7.25;1.63;;;34.50;44.20;;;;;;5021557;28;20212;-48
2022/07/14 10:27:06;;;;;;;3.75;1.73;;;33.50;44.90;;;;;;5021193;28;20021;-50
2022/07/14 10:29:32;;;;;;;4.05;1.48;;;34.50;43.80;;;;;;5021166;28;20072;-49
2022/07/14 10:32:42;;;;;;;2.85;1.33;;;34.00;45.00;;;;;;5025754;28;20471;-51
2022/07/14 10:35:25;;;;;;;6.32;1.63;;;34.20;43.20;;;;;;5003279;28;20034;-51
2022/07/14 10:38:24;;;;;;;4.43;1.55;;;34.50;41.60;;;;;;5009635;28;20057;-51
2022/07/14 10:41:15;;;;;;;5.55;1.98;;;33.80;43.50;;;;;;5009694;28;20105;-50
2022/07/14 10:44:06;;;;;;;5.88;2.13;;;34.60;42.90;;;;;;5010224;28;20061;-49
2022/07/14 10:46:43;;;;;;;6.53;1.75;;;34.20;44.00;;;;;;5010977;28;20080;-50
2022/07/14 10:49:11;;;;;;;7.55;1.88;;;34.50;43.10;;;;;;5010991;28;20022;-50
2022/07/14 10:52:02;;;;;;;3.85;1.30;;;34.90;43.60;;;;;;5010889;28;20117;-48
2022/07/14 10:54:30;;;;;;;6.43;2.25;;;35.10;43.90;;;;;;5009864;28;20335;-51
2022/07/14 10:57:17;;;;;;;6.30;1.98;;;35.30;42.10;;;;;;5009824;28;20124;-51
2022/07/14 10:59:44;;;;;;;5.13;1.50;;;36.00;42.30;;;;;;5010441;28;20029;-48
2022/07/14 11:02:13;;;;;;;6.40;1.70;;;35.50;41.70;;;;;;5010546;28;20022;-48
2022/07/14 11:05:12;;;;;;;3.90;1.50;;;35.30;42.30;;;;;;5009924;28;20352;-50
2022/07/14 11:07:43;;;;;;;5.38;1.63;;;35.10;42.20;;;;;;5010511;28;20022;-50
2022/07/14 11:10:17;;;;;;;4.53;1.40;;;35.50;41.70;;;;;;5010422;28;20102;-50
2022/07/14 11:13:04;;;;;;;2.90;1.35;;;36.00;41.30;;;;;;5010120;28;20026;-50
2022/07/14 11:15:53;;;;;;;6.78;1.58;;;35.70;42.00;;;;;;5009689;28;20041;-50
2022/07/14 11:18:19;;;;;;;5.40;1.80;;;34.70;42.60;;;;;;5010279;28;20541;-50
2022/07/14 11:20:58;;;;;;;4.70;1.40;;;35.20;41.20;;;;;;5010563;28;20026;-50
2022/07/14 11:23:26;;;;;;;5.53;1.70;;;35.60;41.90;;;;;;5010278;28;20080;-50
2022/07/14 11:25:54;;;;;;;4.00;1.50;;;35.90;41.20;;;;;;5009366;28;20030;-50
2022/07/14 11:28:40;;;;;;;4.07;1.70;;;36.50;40.30;;;;;;5010165;28;20026;-50
2022/07/14 11:31:12;;;;;;;7.38;1.85;;;36.40;40.70;;;;;;5010217;28;20435;-50
2022/07/14 11:36:17;;;;;;;6.10;2.03;;;36.10;40.90;;;;;;5010051;28;20026;-50
2022/07/14 11:36:28;;;;;;;3.25;1.55;;;35.50;40.30;;;;;;5010058;28;20032;-50
2022/07/14 11:39:15;;;;;;;5.63;1.50;;;35.30;41.40;;;;;;5010239;28;20066;-50
2022/07/14 11:41:49;;;;;;;4.93;1.70;;;33.80;41.20;;;;;;5009763;28;20026;-50
2022/07/14 11:44:36;;;;;;;4.32;1.58;;;34.70;41.70;;;;;;5009251;28;20048;-50
2022/07/14 11:47:05;;;;;;;4.65;1.13;;;34.70;41.70;;;;;;5009739;28;20439;-50
2022/07/14 11:49:34;;;;;;;5.15;1.80;;;34.90;41.40;;;;;;5009744;28;20022;-50
2022/07/14 11:52:01;;;;;;;4.22;1.35;;;34.40;40.80;;;;;;5009711;28;20022;-49
2022/07/14 11:54:27;;;;;;;4.35;1.85;;;34.50;42.00;;;;;;5008968;28;20014;-50
2022/07/14 11:57:08;;;;;;;3.83;1.20;;;34.80;41.10;;;;;;5009527;28;20483;-50
2022/07/14 11:59:35;;;;;;;4.80;1.40;;;33.10;41.60;;;;;;5009527;28;20472;-49
2022/07/14 12:02:12;;;;;;;5.55;1.50;;;32.20;41.80;;;;;;5009674;28;20261;-50
2022/07/14 12:04:52;;;;;;;4.22;1.42;;;32.80;44.20;;;;;;5008810;28;20439;-48
2022/07/14 12:07:19;;;;;;;;;;;31.60;42.40;;;;;;5009742;28;20014;-47
2022/07/14 12:09:46;;;;;;;7.85;1.42;;;31.70;43.80;;;;;;5009245;28;20387;-48
2022/07/14 12:12:12;;;;;;;4.45;1.58;;;31.40;44.10;;;;;;5009462;28;20451;-47
2022/07/14 12:14:49;;;;;;;6.82;1.55;;;31.70;43.40;;;;;;5007243;28;20273;-47
2022/07/14 12:17:16;;;;;;;3.53;1.25;;;31.50;44.10;;;;;;5007867;28;20060;-47
2022/07/14 12:19:42;;;;;;;6.03;1.25;;;31.30;45.00;;;;;;5009208;28;20022;-47
2022/07/14 12:22:08;;;;;;;3.92;1.10;;;30.70;46.00;;;;;;5009359;28;20081;-47
2022/07/14 12:24:34;;;;;;;5.93;1.65;;;30.00;45.70;;;;;;5007105;28;20021;-47
2022/07/14 12:27:11;;;;;;;2.65;1.27;;;30.30;46.20;;;;;;5007892;28;20067;-47
2022/07/14 12:29:46;;;;;;;7.03;1.30;;;30.30;46.20;;;;;;5009025;28;20022;-48
2022/07/14 12:32:14;;;;;;;5.03;1.33;;;29.60;45.50;;;;;;5009156;28;20025;-48
2022/07/14 12:34:40;;;;;;;4.53;1.17;;;29.80;47.40;;;;;;5008354;28;20354;-47
2022/07/14 12:37:06;;;;;;;5.38;1.38;;;29.60;46.60;;;;;;5008680;28;20053;-47
2022/07/14 12:39:32;;;;;;;5.88;1.50;;;29.10;47.30;;;;;;5009033;28;20057;-47
2022/07/14 12:42:03;;;;;;;6.82;1.20;;;28.60;48.00;;;;;;5009057;28;20542;-46
2022/07/14 12:44:29;;;;;;;6.43;4.18;;;28.90;47.90;;;;;;5008672;28;20037;-47
2022/07/14 12:47:15;;;;;;;8.45;1.80;;;28.50;47.30;;;;;;5008734;28;20117;-47
2022/07/14 12:49:43;;;;;;;1.80;1.30;;;28.10;48.60;;;;;;5009051;28;20017;-47
2022/07/14 12:52:08;;;;;;;5.72;1.27;;;27.70;47.90;;;;;;5009130;28;20547;-47
2022/07/14 12:54:34;;;;;;;3.28;1.10;;;27.30;48.70;;;;;;5011615;28;20061;-47
2022/07/14 12:57:00;;;;;;;3.17;1.13;;;26.90;49.30;;;;;;5017094;28;20375;-46
2022/07/14 12:59:36;;;;;;;8.15;1.45;;;27.00;49.50;;;;;;5017598;28;21121;-46